| time (UTC) | temp F | wind direction | speed MPH | gust MPH | rain 1hr in | rain 24hr in | rain mn in | humidity % | barometer mb |
| 20260906221604 | 56 | 0.0 | 0.0 | 0.00 | 0.18 | 0.16 | 79 | 1017.2 | |
| 20260906220108 | 57 | 0.0 | 0.0 | 0.00 | 0.18 | 0.16 | 75 | 1017.1 | |
| 20260906214609 | 57 | 0.0 | 0.0 | 0.00 | 0.18 | 0.16 | 75 | 1017.1 | |
| 20260906213110 | 58 | 0.0 | 0.0 | 0.00 | 0.18 | 0.16 | 70 | 1017.0 | |
| 20260906211600 | 60 | 0.0 | 0.0 | 0.00 | 0.18 | 0.16 | 70 | 1016.9 | |
| 20260906210108 | 61 | 0.0 | 0.0 | 0.00 | 0.18 | 0.16 | 70 | 1016.9 | |
| 20260906204602 | 62 | 0.0 | 0.0 | 0.00 | 0.18 | 0.16 | 67 | 1016.7 | |
| 20260906203059 | 63 | 0.0 | 0.0 | 0.00 | 0.18 | 0.16 | 68 | 1016.7 | |
| 20260906201602 | 63 | 0.0 | 0.0 | 0.00 | 0.18 | 0.16 | 69 | 1016.5 | |
| 20260906194559 | 63 | 0.0 | 0.0 | 0.00 | 0.18 | 0.16 | 70 | 1016.4 | |
| 20260906193103 | 64 | 0.0 | 0.0 | 0.00 | 0.18 | 0.16 | 69 | 1016.5 | |
| 20260906191611 | 64 | 0.0 | 0.0 | 0.00 | 0.18 | 0.16 | 67 | 1016.6 | |
| 20260906190059 | 61 | 0.0 | 0.0 | 0.00 | 0.18 | 0.16 | 74 | 1016.6 | |
| 20260906184606 | 61 | 0.0 | 0.0 | 0.00 | 0.18 | 0.16 | 73 | 1016.6 | |
| 20260906183104 | 64 | 0.0 | 0.0 | 0.00 | 0.18 | 0.16 | 71 | 1016.5 | |
| 20260906181603 | 64 | 0.0 | 0.0 | 0.00 | 0.18 | 0.16 | 67 | 1016.6 | |
| 20260906180115 | 63 | 0.0 | 0.0 | 0.00 | 0.18 | 0.16 | 74 | 1016.6 | |
| 20260906174600 | 62 | 0.0 | 0.0 | 0.00 | 0.18 | 0.16 | 75 | 1016.7 | |
| 20260906173106 | 62 | 0.0 | 0.0 | 0.00 | 0.18 | 0.16 | 77 | 1016.7 | |
| 20260906171605 | 61 | 0.0 | 0.0 | 0.00 | 0.18 | 0.16 | 78 | 1016.9 | |
| 20260906170100 | 60 | 0.0 | 0.0 | 0.00 | 0.18 | 0.16 | 78 | 1017.1 | |
| 20260906164559 | 61 | 0.0 | 0.0 | 0.00 | 0.18 | 0.16 | 82 | 1017.0 | |
| 20260906163123 | 60 | 0.0 | 0.0 | 0.00 | 0.18 | 0.16 | 81 | 1017.1 | |
| 20260906161605 | 58 | 0.0 | 0.0 | 0.00 | 0.18 | 0.16 | 87 | 1017.2 | |
| 20260906154604 | 61 | 0.0 | 0.0 | 0.00 | 0.18 | 0.16 | 79 | 1017.1 | |
| 20260906153118 | 62 | 0.0 | 0.0 | 0.00 | 0.18 | 0.16 | 82 | 1017.1 | |
| 20260906151557 | 61 | 0.0 | 0.0 | 0.00 | 0.18 | 0.16 | 87 | 1017.0 | |
| 20260906150109 | 59 | 0.0 | 0.0 | 0.00 | 0.18 | 0.16 | 86 | 1017.1 | |
| 20260906144603 | 59 | 0.0 | 0.0 | 0.00 | 0.18 | 0.16 | 86 | 1017.2 | |
| 20260906143058 | 57 | 0.0 | 0.0 | 0.00 | 0.18 | 0.16 | 90 | 1017.0 | |
| 20260906141601 | 57 | 0.0 | 0.0 | 0.00 | 0.18 | 0.16 | 93 | 1017.0 | |
| 20260906140106 | 57 | 0.0 | 0.0 | 0.00 | 0.18 | 0.16 | 91 | 1017.0 | |
| 20260906134604 | 56 | 0.0 | 0.0 | 0.01 | 0.18 | 0.16 | 94 | 1017.0 | |
| 20260906133132 | 55 | 0.0 | 0.0 | 0.01 | 0.18 | 0.16 | 96 | 1016.9 | |
| 20260906131616 | 54 | 0.0 | 0.0 | 0.01 | 0.18 | 0.16 | 96 | 1016.8 | |
| 20260906130109 | 54 | 0.0 | 0.0 | 0.01 | 0.18 | 0.16 | 97 | 1016.7 | |
| 20260906124601 | 53 | 0.0 | 0.0 | 0.02 | 0.17 | 0.15 | 97 | 1016.9 | |
| 20260906123104 | 53 | 0.0 | 0.0 | 0.04 | 0.17 | 0.15 | 97 | 1016.9 | |
| 20260906121603 | 53 | 0.0 | 0.0 | 0.04 | 0.17 | 0.15 | 97 | 1016.7 | |
| 20260906120105 | 53 | 0.0 | 0.0 | 0.04 | 0.17 | 0.15 | 97 | 1016.6 | |
| 20260906114601 | 53 | 0.0 | 0.0 | 0.02 | 0.15 | 0.13 | 96 | 1016.4 | |
| 20260906113102 | 53 | 0.0 | 0.0 | 0.00 | 0.13 | 0.11 | 97 | 1016.1 | |
| 20260906111603 | 53 | 0.0 | 0.0 | 0.01 | 0.13 | 0.11 | 97 | 1016.0 | |
| 20260906110100 | 53 | 0.0 | 0.0 | 0.08 | 0.13 | 0.11 | 97 | 1015.8 | |
| 20260906104606 | 53 | 0.0 | 0.0 | 0.09 | 0.13 | 0.11 | 97 | 1015.6 | |
| 20260906103059 | 53 | 0.0 | 0.0 | 0.09 | 0.13 | 0.11 | 96 | 1015.5 | |
| 20260906101601 | 53 | 0.0 | 0.0 | 0.08 | 0.12 | 0.10 | 96 | 1015.4 | |
| 20260906100111 | 53 | 0.0 | 0.0 | 0.01 | 0.05 | 0.03 | 96 | 1015.3 | |
| 20260906094614 | 53 | 0.0 | 0.0 | 0.00 | 0.04 | 0.02 | 96 | 1015.2 | |
| 20260906093105 | 53 | 0.0 | 0.0 | 0.00 | 0.04 | 0.02 | 96 | 1015.1 | |
| 20260906091601 | 53 | 0.0 | 0.0 | 0.00 | 0.04 | 0.02 | 96 | 1014.9 | |
| 20260906090115 | 53 | 0.0 | 0.0 | 0.00 | 0.04 | 0.02 | 96 | 1014.8 | |
| 20260906084606 | 53 | 0.0 | 0.0 | 0.00 | 0.04 | 0.02 | 96 | 1014.8 | |
| 20260906083102 | 53 | 0.0 | 0.0 | 0.00 | 0.04 | 0.02 | 96 | 1014.8 | |
| 20260906081603 | 53 | 0.0 | 0.0 | 0.01 | 0.04 | 0.02 | 96 | 1014.7 | |
| 20260906080103 | 53 | 0.0 | 0.0 | 0.01 | 0.04 | 0.02 | 96 | 1014.6 | |
| 20260906074607 | 53 | 0.0 | 0.0 | 0.01 | 0.04 | 0.02 | 96 | 1014.8 | |
| 20260906073105 | 53 | 0.0 | 0.0 | 0.01 | 0.04 | 0.02 | 95 | 1014.7 | |
| 20260906071610 | 53 | 0.0 | 0.0 | 0.00 | 0.03 | 0.01 | 95 | 1014.7 | |
| 20260906070107 | 53 | 0.0 | 0.0 | 0.00 | 0.03 | 0.01 | 95 | 1014.6 | |
| 20260906064609 | 53 | 0.0 | 0.0 | 0.00 | 0.03 | 0.01 | 95 | 1014.7 | |
| 20260906063101 | 53 | 0.0 | 0.0 | 0.00 | 0.03 | 0.01 | 95 | 1014.7 | |
| 20260906061607 | 53 | 0.0 | 0.0 | 0.00 | 0.03 | 0.01 | 95 | 1014.9 | |
| 20260906060106 | 53 | 0.0 | 0.0 | 0.00 | 0.03 | 0.01 | 95 | 1015.0 | |
| 20260906054603 | 54 | 0.0 | 0.0 | 0.00 | 0.03 | 0.01 | 95 | 1015.0 | |
| 20260906053100 | 54 | 0.0 | 0.0 | 0.00 | 0.03 | 0.01 | 95 | 1015.0 | |
| 20260906051600 | 54 | 0.0 | 0.0 | 0.01 | 0.03 | 0.01 | 94 | 1014.9 | |
| 20260906050105 | 54 | 0.0 | 0.0 | 0.01 | 0.03 | 0.01 | 95 | 1015.0 | |
| 20260906044603 | 54 | 0.0 | 0.0 | 0.01 | 0.03 | 0.01 | 94 | 1015.0 | |
| 20260906043059 | 54 | 0.0 | 0.0 | 0.01 | 0.03 | 0.01 | 94 | 1015.2 | |
| 20260906041600 | 54 | 0.0 | 0.0 | 0.02 | 0.02 | 0.00 | 94 | 1015.2 | |
| 20260906040104 | 55 | 0.0 | 0.0 | 0.02 | 0.02 | 0.00 | 94 | 1015.0 | |
| 20260906034557 | 55 | 0.0 | 0.0 | 0.02 | 0.02 | 0.02 | 94 | 1015.0 | |
| 20260906033106 | 56 | 0.0 | 0.0 | 0.02 | 0.02 | 0.02 | 94 | 1014.8 | |
| 20260906031604 | 57 | 0.0 | 0.0 | 0.00 | 0.00 | 0.00 | 93 | 1014.7 | |
| 20260906030101 | 58 | 0.0 | 0.0 | 0.00 | 0.00 | 0.00 | 93 | 1014.5 | |
| 20260906024601 | 58 | 0.0 | 0.0 | 0.00 | 0.00 | 0.00 | 92 | 1014.3 | |
| 20260906023103 | 58 | 0.0 | 0.0 | 0.00 | 0.00 | 0.00 | 92 | 1014.4 | |
| 20260906021603 | 58 | 0.0 | 0.0 | 0.00 | 0.00 | 0.00 | 92 | 1014.4 | |
| 20260906020100 | 57 | 0.0 | 0.0 | 0.00 | 0.00 | 0.00 | 93 | 1014.3 | |
| 20260906014616 | 57 | 0.0 | 0.0 | 0.00 | 0.00 | 0.00 | 93 | 1014.1 | |
| 20260906013107 | 57 | 0.0 | 0.0 | 0.00 | 0.00 | 0.00 | 92 | 1014.1 | |
| 20260906011618 | 57 | 0.0 | 0.0 | 0.00 | 0.00 | 0.00 | 92 | 1014.3 | |
| 20260906004619 | 57 | 0.0 | 0.0 | 0.00 | 0.00 | 0.00 | 91 | 1014.2 | |
| 20260906003103 | 57 | 0.0 | 0.0 | 0.00 | 0.00 | 0.00 | 90 | 1014.1 | |
| 20260906001603 | 58 | 0.0 | 0.0 | 0.00 | 0.00 | 0.00 | 90 | 1014.0 | |
| 20260906000105 | 58 | 0.0 | 0.0 | 0.00 | 0.00 | 0.00 | 89 | 1014.1 | |
| 20260905234606 | 59 | 0.0 | 0.0 | 0.00 | 0.00 | 0.00 | 89 | 1013.8 | |
| 20260905233130 | 59 | 0.0 | 0.0 | 0.00 | 0.00 | 0.00 | 88 | 1013.7 | |
| 20260905231559 | 60 | 0.0 | 0.0 | 0.00 | 0.00 | 0.00 | 86 | 1013.5 | |
| 20260905230104 | 61 | 0.0 | 0.0 | 0.00 | 0.00 | 0.00 | 86 | 1013.5 | |
| 20260905224622 | 61 | 0.0 | 0.0 | 0.00 | 0.00 | 0.00 | 85 | 1013.4 | |
| 20260905223106 | 62 | 0.0 | 0.0 | 0.00 | 0.00 | 0.00 | 84 | 1013.3 |